Time;durP1;ratioP1;P1;durP2;ratioP2;P2;SDS_P1;SDS_P2;PMS_P1;PMS_P2;Temp;Humidity;BMP_temperature;BMP_pressure;BME280_temperature;BME280_humidity;BME280_pressure;Samples;Min_cycle;Max_cycle;Signal;HPM_P1;HPM_P2
2022/08/02 00:01:27;;;;;;;12.75;5.03;;;11.90;99.90;;;;;;5050610;28;20052;-63
2022/08/02 00:03:53;;;;;;;7.47;4.50;;;12.00;99.90;;;;;;5034619;28;20467;-63
2022/08/02 00:06:18;;;;;;;15.77;5.03;;;11.90;99.90;;;;;;5020935;28;20045;-63
2022/08/02 00:08:44;;;;;;;9.70;4.28;;;11.90;99.90;;;;;;5026281;28;20053;-63
2022/08/02 00:11:10;;;;;;;8.15;4.30;;;11.90;99.90;;;;;;5034215;28;20045;-63
2022/08/02 00:13:36;;;;;;;9.40;4.57;;;11.90;99.90;;;;;;5045720;28;20053;-63
2022/08/02 00:16:02;;;;;;;7.72;3.40;;;11.90;99.90;;;;;;5038860;28;20048;-63
2022/08/02 00:18:28;;;;;;;7.63;3.85;;;11.90;99.90;;;;;;5014997;28;20045;-62
2022/08/02 00:20:53;;;;;;;10.93;3.28;;;12.00;99.90;;;;;;5035067;28;20047;-63
2022/08/02 00:23:19;;;;;;;6.50;3.58;;;11.80;99.90;;;;;;5041603;28;20068;-63
2022/08/02 00:25:45;;;;;;;8.63;3.25;;;11.70;99.90;;;;;;5029212;28;20057;-63
2022/08/02 00:28:11;;;;;;;8.63;3.55;;;11.70;99.90;;;;;;5013081;28;20048;-63
2022/08/02 00:30:37;;;;;;;8.02;3.17;;;11.60;99.90;;;;;;5040155;28;20053;-63
2022/08/02 00:33:04;;;;;;;9.65;3.53;;;11.60;99.90;;;;;;5049265;28;20049;-63
2022/08/02 00:35:30;;;;;;;7.90;3.45;;;11.60;99.90;;;;;;5051188;28;20062;-63
2022/08/02 00:37:56;;;;;;;15.02;4.15;;;11.60;99.90;;;;;;5016776;28;20436;-63
2022/08/02 00:40:22;;;;;;;13.23;4.00;;;11.60;99.90;;;;;;5029491;28;20045;-63
2022/08/02 00:43:05;;;;;;;11.68;4.10;;;11.60;99.90;;;;;;5043570;28;20497;-63
2022/08/02 00:45:31;;;;;;;9.80;4.10;;;11.50;99.90;;;;;;5023343;28;20044;-63
2022/08/02 00:47:57;;;;;;;10.52;3.88;;;11.50;99.90;;;;;;5030296;28;20053;-63
2022/08/02 00:50:22;;;;;;;13.90;4.18;;;11.50;99.90;;;;;;5031069;28;20522;-63
2022/08/02 00:52:48;;;;;;;14.88;4.72;;;11.50;99.90;;;;;;5049702;28;20095;-63
2022/08/02 00:55:14;;;;;;;12.85;4.78;;;11.50;99.90;;;;;;5050899;28;20048;-63
2022/08/02 00:57:39;;;;;;;10.82;4.93;;;11.50;99.90;;;;;;5034198;28;20118;-63
2022/08/02 01:00:06;;;;;;;10.18;4.78;;;11.40;99.90;;;;;;5051007;28;20435;-63
2022/08/02 01:02:32;;;;;;;11.32;4.75;;;11.40;99.90;;;;;;5045638;28;20072;-63
2022/08/02 01:04:58;;;;;;;13.70;4.20;;;11.40;99.90;;;;;;5042336;28;20073;-63
2022/08/02 01:07:24;;;;;;;16.25;5.00;;;11.40;99.90;;;;;;5014735;28;20053;-63
2022/08/02 01:09:50;;;;;;;14.70;4.97;;;11.40;99.90;;;;;;5030178;28;20570;-63
2022/08/02 01:12:15;;;;;;;14.23;5.25;;;11.30;99.90;;;;;;5040603;28;20049;-63
2022/08/02 01:14:43;;;;;;;10.75;4.85;;;11.30;99.90;;;;;;5037315;28;20072;-63
2022/08/02 01:17:21;;;;;;;12.15;4.85;;;11.20;99.90;;;;;;5021360;28;20482;-63
2022/08/02 01:20:04;;;;;;;16.58;4.75;;;11.20;99.90;;;;;;5050648;28;20047;-63
2022/08/02 01:23:00;;;;;;;14.77;4.82;;;11.20;99.90;;;;;;5042362;28;20057;-63
2022/08/02 01:26:11;;;;;;;13.43;4.93;;;11.10;99.90;;;;;;5039049;28;20057;-63
2022/08/02 01:29:02;;;;;;;14.65;4.93;;;11.00;99.90;;;;;;5026766;28;20499;-63
2022/08/02 01:31:34;;;;;;;;;;;11.00;99.90;;;;;;5050321;28;20036;-63
2022/08/02 01:34:14;;;;;;;10.75;5.03;;;10.90;99.90;;;;;;5048323;28;20276;-63
2022/08/02 01:36:44;;;;;;;10.93;4.63;;;10.90;99.90;;;;;;5034798;28;20053;-63
2022/08/02 01:39:13;;;;;;;10.02;4.30;;;10.90;99.90;;;;;;5048409;28;20452;-62
2022/08/02 01:41:40;;;;;;;12.43;4.15;;;10.90;99.90;;;;;;5028379;28;20061;-63
2022/08/02 01:44:07;;;;;;;10.60;4.75;;;10.90;99.90;;;;;;5042473;28;20044;-63
2022/08/02 01:46:34;;;;;;;12.43;4.72;;;10.80;99.90;;;;;;5034325;28;20056;-63
2022/08/02 01:49:04;;;;;;;9.40;4.63;;;10.80;99.90;;;;;;5047659;28;20451;-62
2022/08/02 01:54:20;;;;;;;14.73;5.22;;;10.70;99.90;;;;;;5045393;28;20527;-62
2022/08/02 01:56:48;;;;;;;10.63;4.80;;;10.70;99.90;;;;;;5032973;28;20053;-63
2022/08/02 01:59:18;;;;;;;11.20;4.65;;;10.70;99.90;;;;;;5047576;28;20124;-63
2022/08/02 02:01:48;;;;;;;11.73;4.72;;;10.70;99.90;;;;;;5048542;28;20063;-63
2022/08/02 02:04:16;;;;;;;11.27;5.03;;;10.80;99.90;;;;;;5047008;28;20064;-63
2022/08/02 02:06:45;;;;;;;9.43;4.65;;;10.90;99.90;;;;;;5034721;28;20614;-63
2022/08/02 02:09:14;;;;;;;14.32;5.38;;;11.00;99.90;;;;;;5047401;28;20068;-63
2022/08/02 02:11:42;;;;;;;11.90;4.55;;;11.00;99.90;;;;;;5047261;28;20539;-63
2022/08/02 02:14:10;;;;;;;11.55;5.03;;;11.00;99.90;;;;;;5027286;28;20049;-62
2022/08/02 02:16:36;;;;;;;11.45;5.10;;;11.00;99.90;;;;;;5026865;28;20041;-63
2022/08/02 02:19:03;;;;;;;14.60;4.55;;;11.00;99.90;;;;;;5045929;28;20496;-62
2022/08/02 02:21:29;;;;;;;9.63;4.57;;;11.00;99.90;;;;;;5046380;28;20488;-63
2022/08/02 02:23:55;;;;;;;9.48;5.40;;;11.00;99.90;;;;;;5038355;28;20049;-63
2022/08/02 02:26:22;;;;;;;12.82;5.47;;;11.00;99.90;;;;;;5018939;28;20397;-63
2022/08/02 02:28:50;;;;;;;16.13;5.80;;;11.00;99.90;;;;;;5041390;28;20037;-63
2022/08/02 02:31:18;;;;;;;10.88;4.50;;;11.00;99.90;;;;;;5048079;28;20519;-63
2022/08/02 02:33:59;;;;;;;12.77;5.05;;;11.00;99.90;;;;;;5038158;28;20057;-62
2022/08/02 02:36:27;;;;;;;;;;;11.10;99.90;;;;;;5019019;28;20529;-63
2022/08/02 02:38:55;;;;;;;11.95;4.45;;;11.20;99.90;;;;;;5029477;28;20276;-62
2022/08/02 02:41:23;;;;;;;10.65;5.10;;;11.30;99.90;;;;;;5031622;28;20120;-62
2022/08/02 02:43:52;;;;;;;10.98;4.63;;;11.30;99.90;;;;;;5043357;28;20106;-62
2022/08/02 02:46:20;;;;;;;13.38;4.85;;;11.40;99.90;;;;;;5041809;28;20111;-64
2022/08/02 02:48:46;;;;;;;17.33;5.10;;;11.30;99.90;;;;;;5046139;28;20045;-62
2022/08/02 02:51:13;;;;;;;9.88;4.40;;;11.40;99.90;;;;;;5051920;28;20049;-62
2022/08/02 02:53:41;;;;;;;15.40;4.80;;;11.40;99.90;;;;;;5052006;28;20045;-62
2022/08/02 02:56:07;;;;;;;11.45;4.32;;;11.40;99.90;;;;;;5048750;28;20053;-64
2022/08/02 02:58:33;;;;;;;10.18;4.50;;;11.30;99.90;;;;;;5040021;28;20052;-62
2022/08/02 03:03:44;;;;;;;11.20;4.90;;;11.30;99.90;;;;;;5039063;28;20061;-63
2022/08/02 03:06:10;;;;;;;12.82;4.97;;;11.30;99.90;;;;;;5044823;28;20053;-63
2022/08/02 03:08:36;;;;;;;14.02;5.10;;;11.30;99.90;;;;;;5044159;28;20087;-63
2022/08/02 03:11:02;;;;;;;15.05;5.00;;;11.30;99.90;;;;;;5050937;28;20455;-62
2022/08/02 03:13:28;;;;;;;10.63;4.80;;;11.30;99.90;;;;;;5035283;28;20073;-62
2022/08/02 03:15:54;;;;;;;11.32;5.13;;;11.40;99.90;;;;;;5041391;28;20434;-63
2022/08/02 03:18:34;;;;;;;12.57;4.78;;;11.30;99.90;;;;;;5016406;28;20053;-62
2022/08/02 03:21:02;;;;;;;10.68;4.57;;;11.30;99.90;;;;;;5032953;28;20045;-62
2022/08/02 03:23:28;;;;;;;13.13;5.15;;;11.40;99.90;;;;;;5027837;28;20548;-62
2022/08/02 03:25:54;;;;;;;11.90;4.85;;;11.40;99.90;;;;;;5032782;28;20493;-62
2022/08/02 03:28:20;;;;;;;14.57;4.93;;;11.40;99.90;;;;;;5031593;28;20052;-62
2022/08/02 03:30:45;;;;;;;11.98;4.65;;;11.40;99.90;;;;;;5031426;28;20052;-62
2022/08/02 03:33:11;;;;;;;11.18;4.95;;;11.40;99.90;;;;;;5043306;28;20193;-63
2022/08/02 03:35:39;;;;;;;15.73;4.82;;;11.40;99.90;;;;;;5032741;28;20056;-63
2022/08/02 03:38:05;;;;;;;11.27;4.90;;;11.40;99.90;;;;;;5015556;28;20195;-62
2022/08/02 03:40:31;;;;;;;11.48;4.88;;;11.40;99.90;;;;;;5030720;28;20049;-63
2022/08/02 03:42:57;;;;;;;13.43;5.18;;;11.40;99.90;;;;;;5043148;28;20037;-63
2022/08/02 03:45:25;;;;;;;12.75;4.85;;;11.40;99.90;;;;;;5040348;28;20484;-62
2022/08/02 03:47:50;;;;;;;13.57;5.32;;;11.30;99.90;;;;;;5033386;28;20045;-62
2022/08/02 03:50:17;;;;;;;12.43;4.97;;;11.40;99.90;;;;;;5051145;28;20037;-62
2022/08/02 03:52:44;;;;;;;12.07;5.45;;;11.40;99.90;;;;;;5049816;28;20051;-63
2022/08/02 03:55:11;;;;;;;12.20;5.22;;;11.20;99.90;;;;;;5050586;28;20106;-63
2022/08/02 03:57:39;;;;;;;11.55;4.93;;;11.20;99.90;;;;;;5020458;28;20037;-63
2022/08/02 04:00:07;;;;;;;16.55;5.75;;;11.20;99.90;;;;;;5041385;28;20107;-62
2022/08/02 04:02:32;;;;;;;11.85;5.70;;;11.20;99.90;;;;;;5031849;28;20389;-62
2022/08/02 04:04:58;;;;;;;16.23;5.65;;;11.20;99.90;;;;;;5042602;28;20167;-62
2022/08/02 04:07:23;;;;;;;16.10;5.82;;;11.30;99.90;;;;;;5033783;28;20102;-62
2022/08/02 04:09:49;;;;;;;17.98;5.65;;;11.30;99.90;;;;;;5040289;28;20054;-62
2022/08/02 04:12:15;;;;;;;13.38;5.30;;;11.30;99.90;;;;;;5035890;28;20041;-62
2022/08/02 04:14:41;;;;;;;15.07;5.72;;;11.30;99.90;;;;;;5038251;28;20075;-62
2022/08/02 04:17:09;;;;;;;16.08;5.90;;;11.40;99.90;;;;;;5034803;28;20136;-63
2022/08/02 04:19:48;;;;;;;13.82;5.60;;;11.30;99.90;;;;;;5039085;28;20041;-62
2022/08/02 04:22:40;;;;;;;13.15;5.60;;;11.40;99.90;;;;;;5031945;28;20447;-62
2022/08/02 04:25:07;;;;;;;15.50;5.72;;;11.60;99.90;;;;;;5039640;28;20072;-62
2022/08/02 04:27:36;;;;;;;14.93;6.43;;;11.50;99.90;;;;;;5048271;28;20048;-62
2022/08/02 04:30:04;;;;;;;11.98;6.28;;;11.50;99.90;;;;;;5036410;28;20107;-62
2022/08/02 04:32:31;;;;;;;14.27;6.10;;;11.50;99.90;;;;;;5037877;28;20409;-62
2022/08/02 04:34:57;;;;;;;15.50;6.05;;;11.50;99.90;;;;;;5030348;28;20045;-62
2022/08/02 04:37:23;;;;;;;13.23;6.43;;;11.50;99.90;;;;;;5026589;28;20049;-62
2022/08/02 04:39:49;;;;;;;15.27;6.55;;;11.60;99.90;;;;;;5050039;28;20049;-62
2022/08/02 04:42:23;;;;;;;16.27;6.20;;;11.60;99.90;;;;;;5048612;28;20080;-62
2022/08/02 04:44:49;;;;;;;16.02;6.20;;;11.70;99.90;;;;;;5035057;28;20071;-62
2022/08/02 04:47:15;;;;;;;16.30;6.38;;;11.70;99.90;;;;;;5034114;28;20099;-62
2022/08/02 04:49:40;;;;;;;15.35;6.05;;;11.90;99.90;;;;;;5045251;28;20085;-62
2022/08/02 04:52:06;;;;;;;15.68;6.47;;;11.80;99.90;;;;;;5040801;28;20048;-62
2022/08/02 04:54:32;;;;;;;13.43;5.97;;;11.90;99.90;;;;;;5037527;28;20041;-62
2022/08/02 04:56:58;;;;;;;15.60;6.07;;;11.90;99.90;;;;;;5022608;28;20489;-62
2022/08/02 04:59:23;;;;;;;13.85;6.25;;;12.00;99.90;;;;;;5028640;28;20133;-62
2022/08/02 05:01:49;;;;;;;16.23;6.07;;;12.10;99.90;;;;;;5029247;28;20124;-62
2022/08/02 05:04:14;;;;;;;15.40;6.07;;;12.10;99.90;;;;;;5046328;28;20076;-62
2022/08/02 05:06:40;;;;;;;15.32;6.60;;;12.30;99.90;;;;;;5027291;28;20056;-61
2022/08/02 05:09:06;;;;;;;13.80;6.03;;;12.30;99.90;;;;;;5026315;28;20556;-62
2022/08/02 05:11:32;;;;;;;13.75;5.78;;;12.40;99.90;;;;;;5036906;28;20051;-61
2022/08/02 05:13:57;;;;;;;15.55;6.45;;;12.40;99.90;;;;;;5030277;28;20056;-61
2022/08/02 05:16:24;;;;;;;16.85;5.93;;;12.50;99.90;;;;;;5027711;28;20084;-62
2022/08/02 05:18:51;;;;;;;9.98;6.22;;;12.60;99.90;;;;;;5026140;28;20278;-62
2022/08/02 05:21:17;;;;;;;13.85;6.25;;;12.70;99.90;;;;;;5043041;28;20404;-62
2022/08/02 05:23:42;;;;;;;15.82;6.80;;;12.80;99.90;;;;;;5040396;28;20492;-61
2022/08/02 05:26:08;;;;;;;11.60;6.18;;;13.00;99.90;;;;;;5024328;28;20056;-62
2022/08/02 05:28:34;;;;;;;13.57;5.93;;;13.10;99.90;;;;;;5039565;28;20094;-61
2022/08/02 05:31:00;;;;;;;11.73;5.45;;;13.20;99.90;;;;;;5050005;28;20059;-62
2022/08/02 05:33:25;;;;;;;13.20;5.53;;;13.30;99.90;;;;;;5047824;28;20125;-62
2022/08/02 05:35:51;;;;;;;19.85;6.55;;;13.40;99.90;;;;;;5036057;28;20119;-62
2022/08/02 05:38:17;;;;;;;18.35;5.85;;;13.40;99.90;;;;;;5033926;28;20033;-62
2022/08/02 05:40:42;;;;;;;11.50;5.60;;;13.40;99.90;;;;;;5050071;28;20111;-62
2022/08/02 05:43:15;;;;;;;11.43;5.03;;;13.50;99.90;;;;;;5047911;28;20056;-62
2022/08/02 05:45:41;;;;;;;11.55;5.32;;;13.40;99.90;;;;;;5048466;28;20202;-62
2022/08/02 05:48:07;;;;;;;12.02;4.93;;;13.50;99.90;;;;;;4996916;28;20056;-62
2022/08/02 05:50:37;;;;;;;15.43;5.40;;;13.80;99.90;;;;;;5020889;28;20132;-62
2022/08/02 05:53:22;;;;;;;13.27;5.35;;;13.90;99.90;;;;;;5029601;28;20124;-62
2022/08/02 05:56:01;;;;;;;11.38;4.55;;;14.10;99.90;;;;;;5032049;28;20495;-62
2022/08/02 05:58:35;;;;;;;10.68;4.35;;;14.30;99.90;;;;;;5033759;28;20523;-62
2022/08/02 06:01:02;;;;;;;14.02;4.80;;;14.40;99.90;;;;;;5044930;28;20052;-61
2022/08/02 06:03:35;;;;;;;11.25;4.10;;;14.60;99.90;;;;;;5040464;28;20045;-61
2022/08/02 06:06:14;;;;;;;12.57;4.30;;;14.70;99.90;;;;;;5050172;28;20369;-61
2022/08/02 06:08:46;;;;;;;11.52;3.75;;;14.90;99.90;;;;;;5043015;28;20576;-62
2022/08/02 06:11:15;;;;;;;9.15;3.55;;;15.10;99.90;;;;;;5049346;28;20087;-61
2022/08/02 06:13:41;;;;;;;6.68;3.38;;;15.20;99.90;;;;;;5034999;28;20077;-62
2022/08/02 06:16:08;;;;;;;10.57;3.58;;;15.40;99.90;;;;;;5039994;28;20061;-62
2022/08/02 06:18:34;;;;;;;10.00;3.35;;;15.50;99.90;;;;;;5023736;28;20042;-62
2022/08/02 06:21:02;;;;;;;13.02;3.92;;;15.60;99.90;;;;;;5044495;28;20045;-61
2022/08/02 06:23:28;;;;;;;10.13;3.55;;;15.70;99.90;;;;;;5046396;28;20408;-62
2022/08/02 06:25:56;;;;;;;9.88;3.33;;;15.80;99.90;;;;;;5033735;28;20492;-61
2022/08/02 06:28:23;;;;;;;9.10;2.83;;;15.90;99.90;;;;;;5017224;28;20052;-62
2022/08/02 06:30:49;;;;;;;8.45;2.95;;;16.00;99.90;;;;;;5034065;28;20049;-62
2022/08/02 06:33:14;;;;;;;10.30;3.40;;;16.00;99.90;;;;;;5033004;28;20053;-61
2022/08/02 06:36:18;;;;;;;9.88;3.03;;;16.00;99.90;;;;;;5044209;28;20056;-62
2022/08/02 06:38:55;;;;;;;9.13;2.72;;;16.10;99.90;;;;;;5030748;28;20170;-62
2022/08/02 06:41:23;;;;;;;9.25;2.58;;;16.20;99.90;;;;;;5034421;28;20140;-62
2022/08/02 06:43:53;;;;;;;10.35;3.00;;;16.30;99.90;;;;;;5047235;28;20041;-62
2022/08/02 06:46:19;;;;;;;6.70;2.53;;;16.40;99.90;;;;;;5043063;28;20056;-62
2022/08/02 06:48:46;;;;;;;9.23;2.85;;;16.40;99.90;;;;;;5018537;28;20107;-62
2022/08/02 06:51:11;;;;;;;7.10;2.80;;;16.60;99.90;;;;;;5051063;28;20511;-61
2022/08/02 06:53:37;;;;;;;10.43;2.55;;;16.70;99.90;;;;;;5052438;28;20060;-61
2022/08/02 06:56:03;;;;;;;8.18;2.35;;;16.70;99.90;;;;;;5048857;28;20400;-62
2022/08/02 06:58:29;;;;;;;6.05;2.70;;;16.80;99.90;;;;;;5032102;28;20073;-62
2022/08/02 07:00:54;;;;;;;10.30;2.70;;;17.00;99.90;;;;;;5051011;28;20444;-62
2022/08/02 07:03:20;;;;;;;9.57;2.53;;;17.10;99.90;;;;;;5041063;28;20534;-62
2022/08/02 07:05:49;;;;;;;6.75;2.05;;;17.20;99.90;;;;;;5051040;28;20381;-62
2022/08/02 07:08:15;;;;;;;6.75;1.92;;;17.30;99.90;;;;;;5036951;28;20125;-62
2022/08/02 07:10:40;;;;;;;10.00;2.10;;;17.40;99.90;;;;;;5050626;28;20049;-61
2022/08/02 07:13:06;;;;;;;7.43;2.25;;;17.40;99.90;;;;;;5037164;28;20041;-62
2022/08/02 07:15:32;;;;;;;8.05;2.38;;;17.40;99.90;;;;;;5040832;28;20488;-62
2022/08/02 07:17:57;;;;;;;4.07;1.73;;;17.40;99.90;;;;;;5028570;28;20049;-62
2022/08/02 07:20:23;;;;;;;6.53;1.77;;;17.40;99.90;;;;;;5051108;28;20397;-62
2022/08/02 07:22:49;;;;;;;5.75;2.00;;;17.40;99.90;;;;;;5048300;28;20126;-62
2022/08/02 07:25:15;;;;;;;6.57;1.77;;;17.50;99.90;;;;;;5032239;28;20123;-62
2022/08/02 07:27:40;;;;;;;6.80;1.90;;;17.50;99.90;;;;;;5027221;28;20515;-61
2022/08/02 07:30:07;;;;;;;5.03;1.95;;;17.70;99.90;;;;;;5050967;28;20268;-63
2022/08/02 07:32:33;;;;;;;7.45;1.65;;;17.70;99.90;;;;;;5051675;28;20052;-63
2022/08/02 07:35:00;;;;;;;8.88;1.73;;;17.80;99.90;;;;;;5051257;28;20053;-62
2022/08/02 07:37:31;;;;;;;4.50;1.42;;;17.90;99.90;;;;;;5036489;28;20053;-62
2022/08/02 07:39:57;;;;;;;4.82;1.40;;;18.00;99.90;;;;;;5050723;28;20120;-61
2022/08/02 07:42:23;;;;;;;7.60;1.50;;;18.10;99.90;;;;;;5049364;28;20259;-62
2022/08/02 07:44:49;;;;;;;6.75;1.50;;;18.20;99.90;;;;;;5052081;28;20629;-61
2022/08/02 07:47:14;;;;;;;4.68;1.40;;;18.30;99.90;;;;;;5035079;28;20049;-62
2022/08/02 07:49:40;;;;;;;4.53;1.20;;;18.40;99.90;;;;;;5046382;28;20504;-62
2022/08/02 07:52:06;;;;;;;5.53;1.30;;;18.50;99.90;;;;;;5030006;28;20033;-62
2022/08/02 07:54:32;;;;;;;4.10;1.33;;;18.70;99.90;;;;;;5065909;28;20120;-63
2022/08/02 07:56:58;;;;;;;4.93;1.30;;;18.70;99.90;;;;;;5023715;28;20056;-61
2022/08/02 07:59:23;;;;;;;4.13;1.05;;;18.80;99.90;;;;;;5048356;28;20504;-62
2022/08/02 08:01:50;;;;;;;3.65;1.25;;;18.90;99.90;;;;;;5051735;28;20098;-62
2022/08/02 08:04:16;;;;;;;6.22;1.30;;;19.00;99.90;;;;;;5031940;28;20128;-61
2022/08/02 08:06:42;;;;;;;5.53;1.35;;;19.10;99.90;;;;;;5018000;28;20559;-62
2022/08/02 08:09:09;;;;;;;5.00;1.17;;;19.10;99.90;;;;;;5047244;28;20480;-61
2022/08/02 08:11:34;;;;;;;3.95;1.00;;;19.10;99.90;;;;;;5039463;28;20088;-61
2022/08/02 08:14:00;;;;;;;3.75;1.00;;;19.20;99.90;;;;;;5049151;28;20092;-61
2022/08/02 08:16:27;;;;;;;4.05;0.88;;;19.30;99.90;;;;;;5030270;28;21072;-62
2022/08/02 08:18:54;;;;;;;2.28;0.65;;;19.30;99.90;;;;;;5040627;28;20045;-62
2022/08/02 08:21:20;;;;;;;4.70;0.98;;;19.50;99.90;;;;;;5046092;28;20481;-61
2022/08/02 08:23:45;;;;;;;2.30;0.95;;;19.50;99.90;;;;;;5044534;28;20132;-61
2022/08/02 08:26:11;;;;;;;3.75;1.08;;;19.60;99.90;;;;;;5024074;28;20124;-62
2022/08/02 08:28:37;;;;;;;2.95;1.02;;;19.60;99.90;;;;;;5022616;28;20068;-62
2022/08/02 08:31:03;;;;;;;6.15;1.05;;;19.60;99.90;;;;;;5031039;28;20052;-61
2022/08/02 08:33:29;;;;;;;3.28;0.65;;;19.70;99.90;;;;;;5041531;28;20046;-62
2022/08/02 08:35:55;;;;;;;3.15;0.80;;;19.80;99.90;;;;;;5031275;28;20639;-62
2022/08/02 08:38:21;;;;;;;4.55;0.68;;;19.90;99.90;;;;;;5022951;28;20404;-61
2022/08/02 08:40:49;;;;;;;2.50;0.68;;;20.00;99.90;;;;;;5051146;28;20048;-61
2022/08/02 08:43:15;;;;;;;1.30;0.40;;;20.10;99.90;;;;;;5042442;28;20042;-61
2022/08/02 08:45:45;;;;;;;5.40;0.93;;;20.20;99.90;;;;;;5041487;28;20159;-61
2022/08/02 08:48:17;;;;;;;1.87;0.70;;;20.30;99.90;;;;;;5034569;28;20049;-61
2022/08/02 08:50:50;;;;;;;;;;;20.40;99.90;;;;;;5051285;28;20290;-62
2022/08/02 08:53:16;;;;;;;2.13;0.60;;;20.50;99.90;;;;;;5045350;28;19932;-62
2022/08/02 08:55:43;;;;;;;1.60;0.50;;;20.60;99.90;;;;;;5045031;28;20114;-61
2022/08/02 08:58:11;;;;;;;4.57;0.90;;;20.70;99.90;;;;;;5034524;28;20084;-61
2022/08/02 09:00:37;;;;;;;2.88;0.90;;;20.80;99.90;;;;;;5050857;28;20048;-62
2022/08/02 09:03:05;;;;;;;5.78;0.80;;;20.90;99.90;;;;;;5040179;28;20041;-62
2022/08/02 09:05:33;;;;;;;3.15;0.90;;;21.20;99.90;;;;;;5046984;28;20060;-61
2022/08/02 09:07:59;;;;;;;1.95;0.55;;;21.10;99.90;;;;;;5032498;28;20492;-61
2022/08/02 09:10:40;;;;;;;1.95;0.68;;;21.20;99.90;;;;;;5050821;28;20056;-61
2022/08/02 09:13:09;;;;;;;6.57;0.90;;;21.20;99.90;;;;;;5035172;28;20140;-61
2022/08/02 09:15:36;;;;;;;3.65;0.70;;;21.20;99.90;;;;;;5039914;28;20455;-61
2022/08/02 09:18:06;;;;;;;4.57;0.90;;;21.20;99.90;;;;;;5014411;28;20046;-62
2022/08/02 09:20:33;;;;;;;2.55;0.73;;;21.40;99.90;;;;;;5040205;28;20037;-62
2022/08/02 09:23:10;;;;;;;2.50;0.80;;;21.60;99.90;;;;;;5045116;28;20375;-63
2022/08/02 09:25:36;;;;;;;2.13;0.50;;;21.80;99.90;;;;;;5037753;28;20087;-62
2022/08/02 09:28:04;;;;;;;2.58;0.70;;;21.90;99.90;;;;;;5034036;28;20041;-62
2022/08/02 09:30:30;;;;;;;1.55;0.50;;;22.10;99.90;;;;;;5050020;28;20540;-62
2022/08/02 09:32:56;;;;;;;3.45;1.02;;;22.30;99.90;;;;;;5048480;28;20048;-61
2022/08/02 09:35:36;;;;;;;2.67;1.00;;;22.40;99.90;;;;;;5050013;28;20033;-62
2022/08/02 09:38:13;;;;;;;3.85;0.98;;;22.40;99.90;;;;;;5034501;28;20040;-62
2022/08/02 09:40:40;;;;;;;3.15;0.60;;;22.40;99.90;;;;;;5048476;28;20037;-62
2022/08/02 09:43:07;;;;;;;3.20;1.10;;;22.40;99.90;;;;;;5041405;28;20504;-61
2022/08/02 09:45:34;;;;;;;2.58;1.00;;;22.30;99.90;;;;;;5040114;28;20068;-61
2022/08/02 09:48:09;;;;;;;2.45;1.00;;;22.40;99.90;;;;;;5033382;28;20075;-60
2022/08/02 09:50:40;;;;;;;3.72;1.20;;;22.30;99.90;;;;;;5050187;28;20111;-59
2022/08/02 09:53:12;;;;;;;4.47;1.40;;;22.50;99.90;;;;;;5029346;28;20556;-59
2022/08/02 09:55:39;;;;;;;6.22;1.38;;;22.60;99.90;;;;;;5029143;28;20564;-59
2022/08/02 09:58:18;;;;;;;3.95;1.17;;;22.60;99.90;;;;;;5008242;28;20144;-60
2022/08/02 10:00:55;;;;;;;3.22;0.95;;;22.80;99.90;;;;;;5041726;28;20076;-60
2022/08/02 10:03:20;;;;;;;3.65;1.35;;;22.80;99.90;;;;;;5035830;28;20064;-60
2022/08/02 10:05:49;;;;;;;2.95;1.00;;;23.00;99.90;;;;;;5035359;28;20037;-59
2022/08/02 10:08:15;;;;;;;3.20;1.40;;;22.80;99.90;;;;;;5024002;28;20366;-60
2022/08/02 10:10:42;;;;;;;4.72;1.27;;;22.90;99.90;;;;;;5030597;28;20049;-59
2022/08/02 10:13:09;;;;;;;5.50;1.55;;;22.80;99.90;;;;;;5029404;28;20041;-60
2022/08/02 10:15:36;;;;;;;5.28;1.60;;;22.70;99.90;;;;;;5037946;28;20049;-59
2022/08/02 10:18:04;;;;;;;3.97;1.50;;;22.70;99.90;;;;;;5012266;28;20053;-60
2022/08/02 10:20:32;;;;;;;3.92;1.63;;;22.80;99.90;;;;;;5032556;28;20493;-59
2022/08/02 10:23:00;;;;;;;4.32;1.80;;;22.90;99.90;;;;;;5021543;28;20046;-60
2022/08/02 10:25:26;;;;;;;5.13;1.85;;;23.20;99.90;;;;;;5031805;28;20261;-60
2022/08/02 10:27:52;;;;;;;2.08;1.50;;;23.20;99.90;;;;;;4996476;28;20049;-60
2022/08/02 10:30:18;;;;;;;4.07;1.27;;;23.20;99.90;;;;;;5047871;28;20091;-59
2022/08/02 10:32:45;;;;;;;5.25;2.22;;;23.20;99.90;;;;;;5044882;28;20037;-59
2022/08/02 10:35:15;;;;;;;5.45;1.88;;;23.20;99.90;;;;;;5029385;28;20089;-60
2022/08/02 10:37:43;;;;;;;6.17;2.20;;;23.20;99.90;;;;;;5014670;28;20049;-59
2022/08/02 10:40:21;;;;;;;5.22;2.70;;;23.40;99.90;;;;;;5029575;28;20276;-61
2022/08/02 10:42:52;;;;;;;6.30;1.83;;;23.50;99.90;;;;;;5034623;28;20088;-61
2022/08/02 10:45:20;;;;;;;4.05;2.33;;;23.60;99.90;;;;;;5037203;28;20040;-60
2022/08/02 10:48:10;;;;;;;5.38;2.65;;;23.90;99.90;;;;;;5016777;28;20041;-61
2022/08/02 10:50:48;;;;;;;5.28;2.75;;;24.00;99.90;;;;;;5017598;28;20064;-59
2022/08/02 10:53:28;;;;;;;6.13;2.55;;;23.90;99.90;;;;;;5038880;28;20093;-60
2022/08/02 10:55:56;;;;;;;6.22;2.70;;;23.70;99.90;;;;;;5031532;28;20117;-60
2022/08/02 10:58:26;;;;;;;5.60;2.80;;;23.70;99.90;;;;;;5021487;28;20044;-59
2022/08/02 11:00:52;;;;;;;5.78;2.35;;;23.60;99.90;;;;;;5039503;28;20056;-61
2022/08/02 11:03:38;;;;;;;7.32;2.78;;;23.70;99.90;;;;;;5036664;28;20559;-60
2022/08/02 11:06:06;;;;;;;5.75;2.53;;;23.70;99.90;;;;;;5036287;28;20088;-61
2022/08/02 11:08:32;;;;;;;7.80;2.50;;;23.70;99.90;;;;;;5019696;28;20045;-62
2022/08/02 11:11:00;;;;;;;5.68;1.90;;;23.70;99.90;;;;;;5038758;28;20420;-62
2022/08/02 11:13:28;;;;;;;6.82;2.40;;;23.80;99.90;;;;;;5050704;28;20040;-62
2022/08/02 11:16:05;;;;;;;4.28;2.17;;;23.80;99.90;;;;;;5042163;28;20048;-62
2022/08/02 11:18:49;;;;;;;6.40;2.47;;;23.80;99.90;;;;;;5034086;28;20140;-62
2022/08/02 11:21:29;;;;;;;6.93;2.40;;;23.90;99.90;;;;;;5044575;28;20051;-62
2022/08/02 11:24:15;;;;;;;5.45;2.10;;;23.80;99.90;;;;;;5047382;28;20044;-62
2022/08/02 11:26:42;;;;;;;4.20;2.50;;;23.80;99.90;;;;;;5028316;28;20625;-61
2022/08/02 11:29:08;;;;;;;4.55;2.40;;;23.80;99.90;;;;;;5037055;28;20053;-62
2022/08/02 11:31:42;;;;;;;6.38;2.42;;;23.80;99.90;;;;;;5042414;28;20045;-62
2022/08/02 11:34:09;;;;;;;4.13;2.35;;;23.90;99.90;;;;;;5039500;28;20057;-62
2022/08/02 11:36:46;;;;;;;4.07;2.10;;;24.00;99.90;;;;;;5036577;28;20056;-63
2022/08/02 11:39:15;;;;;;;2.88;2.05;;;24.00;99.90;;;;;;5050446;28;20377;-63
2022/08/02 11:41:42;;;;;;;4.00;2.05;;;24.00;99.90;;;;;;5050842;28;20048;-62
2022/08/02 11:44:08;;;;;;;6.60;2.90;;;23.90;99.90;;;;;;5036586;28;20527;-62
2022/08/02 11:46:34;;;;;;;7.25;2.55;;;23.90;99.90;;;;;;5037723;28;20049;-63
2022/08/02 11:49:15;;;;;;;3.65;3.03;;;23.90;99.90;;;;;;5049799;28;20138;-62
2022/08/02 11:52:04;;;;;;;5.00;2.95;;;23.90;99.90;;;;;;5042667;28;20396;-60
2022/08/02 11:54:39;;;;;;;5.05;3.50;;;23.90;99.90;;;;;;5036265;28;20048;-63
2022/08/02 11:57:13;;;;;;;6.18;3.38;;;23.90;99.90;;;;;;5036326;28;20095;-62
2022/08/02 11:59:40;;;;;;;5.35;3.83;;;23.90;99.90;;;;;;5037932;28;20060;-63
2022/08/02 12:02:07;;;;;;;8.30;3.70;;;23.90;99.90;;;;;;5048897;28;20059;-61
2022/08/02 12:04:33;;;;;;;5.95;3.33;;;23.80;99.90;;;;;;5050980;28;20044;-61
2022/08/02 12:07:01;;;;;;;7.20;3.83;;;23.80;99.90;;;;;;5021734;28;20051;-62
2022/08/02 12:09:28;;;;;;;3.35;2.42;;;23.80;99.90;;;;;;5028838;28;20103;-61
2022/08/02 12:11:56;;;;;;;3.67;1.60;;;23.70;99.90;;;;;;5038212;28;20103;-61
2022/08/02 12:14:23;;;;;;;3.92;1.80;;;23.70;99.90;;;;;;5030639;28;20042;-62
2022/08/02 12:19:35;;;;;;;2.65;1.80;;;23.70;99.90;;;;;;5042143;28;20047;-62
2022/08/02 12:22:18;;;;;;;2.78;2.00;;;23.50;99.90;;;;;;5042757;28;20515;-62
2022/08/02 12:24:49;;;;;;;3.42;2.33;;;23.50;99.90;;;;;;5035023;28;20042;-61
2022/08/02 12:27:29;;;;;;;3.80;2.33;;;23.40;99.90;;;;;;5018941;28;20118;-61
2022/08/02 12:30:11;;;;;;;3.35;1.90;;;23.40;99.90;;;;;;5036877;28;20124;-62
2022/08/02 12:32:37;;;;;;;5.38;3.15;;;23.40;99.90;;;;;;5041896;28;20041;-62
2022/08/02 12:35:16;;;;;;;3.22;2.78;;;23.40;99.90;;;;;;5041248;28;20440;-62
2022/08/02 12:37:44;;;;;;;5.63;3.50;;;23.40;99.90;;;;;;5023106;28;20608;-62
2022/08/02 12:40:30;;;;;;;4.20;3.10;;;23.30;99.90;;;;;;5050085;28;20079;-62
2022/08/02 12:42:59;;;;;;;9.48;4.25;;;23.20;99.90;;;;;;5035619;28;20465;-62
2022/08/02 12:45:26;;;;;;;5.35;3.70;;;23.20;99.90;;;;;;5049538;28;20075;-62
2022/08/02 12:47:54;;;;;;;6.18;4.10;;;23.20;99.90;;;;;;5030316;28;20042;-61
2022/08/02 12:50:25;;;;;;;7.47;3.85;;;23.20;99.90;;;;;;5029460;28;20116;-61
2022/08/02 12:53:02;;;;;;;8.20;4.32;;;23.20;99.90;;;;;;5033483;28;20528;-61
2022/08/02 12:55:28;;;;;;;6.97;4.00;;;23.20;99.90;;;;;;5031158;28;20408;-62
2022/08/02 12:57:58;;;;;;;6.82;3.72;;;23.20;99.90;;;;;;5019548;28;20045;-62
2022/08/02 13:00:28;;;;;;;5.88;3.90;;;23.20;99.90;;;;;;5049635;28;20399;-61